sensor_id;sensor_type;location;lat;lon;timestamp;pressure;altitude;pressure_sealevel;temperature;humidity
67501;BME280;54349;52.528;19.760;2024-02-26T00:00:14;99499.02;;;25.71;35.63
67501;BME280;54349;52.528;19.760;2024-02-26T00:03:04;99505.12;;;25.72;35.53
67501;BME280;54349;52.528;19.760;2024-02-26T00:05:33;99508.98;;;25.74;35.49
67501;BME280;54349;52.528;19.760;2024-02-26T00:08:01;99504.13;;;25.76;35.48
67501;BME280;54349;52.528;19.760;2024-02-26T00:10:34;99508.04;;;25.78;35.26
67501;BME280;54349;52.528;19.760;2024-02-26T00:13:02;99504.08;;;25.79;35.27
67501;BME280;54349;52.528;19.760;2024-02-26T00:15:33;99502.23;;;25.81;35.31
67501;BME280;54349;52.528;19.760;2024-02-26T00:18:03;99500.77;;;25.83;35.24
67501;BME280;54349;52.528;19.760;2024-02-26T00:20:33;99502.23;;;25.84;35.19
67501;BME280;54349;52.528;19.760;2024-02-26T00:23:01;99505.02;;;25.86;35.26
67501;BME280;54349;52.528;19.760;2024-02-26T00:25:31;99505.41;;;25.86;35.13
67501;BME280;54349;52.528;19.760;2024-02-26T00:27:59;99503.90;;;25.88;35.18
67501;BME280;54349;52.528;19.760;2024-02-26T00:30:29;99505.39;;;25.90;35.08
67501;BME280;54349;52.528;19.760;2024-02-26T00:32:58;99500.02;;;25.90;35.00
67501;BME280;54349;52.528;19.760;2024-02-26T00:35:27;99501.34;;;25.92;34.98
67501;BME280;54349;52.528;19.760;2024-02-26T00:37:55;99500.47;;;25.93;34.91
67501;BME280;54349;52.528;19.760;2024-02-26T00:40:26;99497.02;;;25.95;34.78
67501;BME280;54349;52.528;19.760;2024-02-26T00:42:54;99493.02;;;25.96;34.73
67501;BME280;54349;52.528;19.760;2024-02-26T00:45:24;99492.60;;;25.98;34.90
67501;BME280;54349;52.528;19.760;2024-02-26T00:47:52;99488.23;;;26.00;34.74
67501;BME280;54349;52.528;19.760;2024-02-26T00:50:22;99487.17;;;26.02;34.70
67501;BME280;54349;52.528;19.760;2024-02-26T00:52:50;99489.00;;;26.04;34.60
67501;BME280;54349;52.528;19.760;2024-02-26T00:55:18;99484.05;;;26.06;34.62
67501;BME280;54349;52.528;19.760;2024-02-26T00:57:47;99485.55;;;26.08;34.64
67501;BME280;54349;52.528;19.760;2024-02-26T01:00:15;99487.48;;;26.10;34.47
67501;BME280;54349;52.528;19.760;2024-02-26T01:02:46;99490.80;;;26.12;34.37
67501;BME280;54349;52.528;19.760;2024-02-26T01:05:14;99487.54;;;26.14;34.48
67501;BME280;54349;52.528;19.760;2024-02-26T01:07:45;99489.02;;;26.16;34.32
67501;BME280;54349;52.528;19.760;2024-02-26T01:10:14;99489.34;;;26.18;34.19
67501;BME280;54349;52.528;19.760;2024-02-26T01:12:44;99487.15;;;26.18;34.19
67501;BME280;54349;52.528;19.760;2024-02-26T01:15:12;99487.03;;;26.19;34.14
67501;BME280;54349;52.528;19.760;2024-02-26T01:17:42;99482.05;;;26.20;34.14
67501;BME280;54349;52.528;19.760;2024-02-26T01:20:10;99477.14;;;26.21;34.04
67501;BME280;54349;52.528;19.760;2024-02-26T01:22:42;99474.91;;;26.22;34.03
67501;BME280;54349;52.528;19.760;2024-02-26T01:25:10;99471.91;;;26.23;34.07
67501;BME280;54349;52.528;19.760;2024-02-26T01:27:39;99475.85;;;26.25;33.92
67501;BME280;54349;52.528;19.760;2024-02-26T01:30:11;99477.55;;;26.26;33.93
67501;BME280;54349;52.528;19.760;2024-02-26T01:32:40;99470.73;;;26.27;33.86
67501;BME280;54349;52.528;19.760;2024-02-26T01:35:09;99473.17;;;26.28;33.89
67501;BME280;54349;52.528;19.760;2024-02-26T01:37:42;99470.48;;;26.28;33.83
67501;BME280;54349;52.528;19.760;2024-02-26T01:40:11;99473.81;;;26.30;33.79
67501;BME280;54349;52.528;19.760;2024-02-26T01:42:40;99473.92;;;26.31;33.76
67501;BME280;54349;52.528;19.760;2024-02-26T01:45:14;99472.98;;;26.34;33.66
67501;BME280;54349;52.528;19.760;2024-02-26T01:47:54;99474.04;;;26.37;33.70
67501;BME280;54349;52.528;19.760;2024-02-26T01:50:24;99475.80;;;26.39;33.68
67501;BME280;54349;52.528;19.760;2024-02-26T01:52:54;99475.68;;;26.40;33.60
67501;BME280;54349;52.528;19.760;2024-02-26T01:55:25;99479.80;;;26.42;33.62
67501;BME280;54349;52.528;19.760;2024-02-26T01:57:55;99483.42;;;26.43;33.51
67501;BME280;54349;52.528;19.760;2024-02-26T02:00:24;99486.13;;;26.43;33.64
67501;BME280;54349;52.528;19.760;2024-02-26T02:51:18;99517.94;;;26.02;33.67
67501;BME280;54349;52.528;19.760;2024-02-26T02:53:47;99512.89;;;25.97;33.74
67501;BME280;54349;52.528;19.760;2024-02-26T02:56:17;99514.10;;;25.93;33.71
67501;BME280;54349;52.528;19.760;2024-02-26T02:58:45;99513.13;;;25.88;33.59
67501;BME280;54349;52.528;19.760;2024-02-26T03:01:13;99511.91;;;25.84;33.57
67501;BME280;54349;52.528;19.760;2024-02-26T03:03:43;99511.30;;;25.79;33.65
67501;BME280;54349;52.528;19.760;2024-02-26T03:06:11;99508.98;;;25.74;33.66
67501;BME280;54349;52.528;19.760;2024-02-26T03:08:40;99508.15;;;25.69;33.69
67501;BME280;54349;52.528;19.760;2024-02-26T03:11:13;99518.11;;;25.64;33.67
67501;BME280;54349;52.528;19.760;2024-02-26T03:13:43;99513.29;;;25.58;33.86
67501;BME280;54349;52.528;19.760;2024-02-26T03:16:11;99514.92;;;25.53;33.81
67501;BME280;54349;52.528;19.760;2024-02-26T03:18:41;99514.57;;;25.48;33.89
67501;BME280;54349;52.528;19.760;2024-02-26T03:21:09;99515.91;;;25.43;33.96
67501;BME280;54349;52.528;19.760;2024-02-26T03:23:39;99517.08;;;25.39;33.92
67501;BME280;54349;52.528;19.760;2024-02-26T03:26:08;99516.55;;;25.34;34.07
67501;BME280;54349;52.528;19.760;2024-02-26T03:28:38;99514.62;;;25.29;34.20
67501;BME280;54349;52.528;19.760;2024-02-26T03:31:06;99517.54;;;25.25;34.26
67501;BME280;54349;52.528;19.760;2024-02-26T03:33:34;99513.64;;;25.20;34.20
67501;BME280;54349;52.528;19.760;2024-02-26T03:36:04;99518.24;;;25.15;34.34
67501;BME280;54349;52.528;19.760;2024-02-26T03:38:33;99517.36;;;25.11;34.39
67501;BME280;54349;52.528;19.760;2024-02-26T03:41:02;99516.79;;;25.07;34.42
67501;BME280;54349;52.528;19.760;2024-02-26T03:43:30;99513.84;;;25.03;34.35
67501;BME280;54349;52.528;19.760;2024-02-26T03:46:01;99512.16;;;24.99;34.42
67501;BME280;54349;52.528;19.760;2024-02-26T03:48:29;99508.77;;;24.94;34.37
67501;BME280;54349;52.528;19.760;2024-02-26T03:50:59;99509.69;;;24.89;34.41
67501;BME280;54349;52.528;19.760;2024-02-26T03:53:28;99511.80;;;24.84;34.46
67501;BME280;54349;52.528;19.760;2024-02-26T03:56:03;99513.58;;;24.79;34.43
67501;BME280;54349;52.528;19.760;2024-02-26T03:58:31;99512.07;;;24.74;34.32
67501;BME280;54349;52.528;19.760;2024-02-26T04:01:01;99515.71;;;24.66;34.06
67501;BME280;54349;52.528;19.760;2024-02-26T04:03:30;99517.86;;;24.59;34.04
67501;BME280;54349;52.528;19.760;2024-02-26T04:06:00;99520.52;;;24.52;34.03
67501;BME280;54349;52.528;19.760;2024-02-26T04:08:28;99518.86;;;24.47;34.10
67501;BME280;54349;52.528;19.760;2024-02-26T04:10:58;99516.48;;;24.42;34.09
67501;BME280;54349;52.528;19.760;2024-02-26T04:13:26;99513.71;;;24.36;33.99
67501;BME280;54349;52.528;19.760;2024-02-26T04:15:57;99514.37;;;24.30;34.00
67501;BME280;54349;52.528;19.760;2024-02-26T04:18:25;99516.19;;;24.25;33.91
67501;BME280;54349;52.528;19.760;2024-02-26T04:20:56;99511.30;;;24.20;33.88
67501;BME280;54349;52.528;19.760;2024-02-26T04:23:25;99514.74;;;24.15;34.12
67501;BME280;54349;52.528;19.760;2024-02-26T04:25:55;99516.05;;;24.12;34.20
67501;BME280;54349;52.528;19.760;2024-02-26T04:28:23;99513.29;;;24.09;34.09
67501;BME280;54349;52.528;19.760;2024-02-26T04:30:56;99510.23;;;24.05;34.22
67501;BME280;54349;52.528;19.760;2024-02-26T04:33:24;99513.38;;;24.03;34.26
67501;BME280;54349;52.528;19.760;2024-02-26T04:35:53;99514.77;;;24.00;34.30
67501;BME280;54349;52.528;19.760;2024-02-26T04:38:22;99511.20;;;23.98;34.38
67501;BME280;54349;52.528;19.760;2024-02-26T04:40:52;99509.24;;;23.95;34.23
67501;BME280;54349;52.528;19.760;2024-02-26T04:43:20;99508.95;;;23.90;33.88
67501;BME280;54349;52.528;19.760;2024-02-26T04:49:05;99513.67;;;23.76;34.00
67501;BME280;54349;52.528;19.760;2024-02-26T04:51:35;99516.41;;;23.72;34.04
67501;BME280;54349;52.528;19.760;2024-02-26T04:54:11;99516.81;;;23.67;34.08
67501;BME280;54349;52.528;19.760;2024-02-26T04:56:47;99519.50;;;23.67;33.98
67501;BME280;54349;52.528;19.760;2024-02-26T04:59:16;99520.71;;;23.68;34.15
67501;BME280;54349;52.528;19.760;2024-02-26T05:01:48;99519.86;;;23.67;33.87
67501;BME280;54349;52.528;19.760;2024-02-26T05:04:16;99521.85;;;23.64;33.80
67501;BME280;54349;52.528;19.760;2024-02-26T05:06:48;99522.42;;;23.63;34.14
67501;BME280;54349;52.528;19.760;2024-02-26T05:12:19;99523.21;;;23.61;34.23
67501;BME280;54349;52.528;19.760;2024-02-26T05:14:47;99523.08;;;23.61;34.21
67501;BME280;54349;52.528;19.760;2024-02-26T05:17:18;99530.12;;;23.61;34.15
67501;BME280;54349;52.528;19.760;2024-02-26T05:19:46;99528.41;;;23.60;34.20
67501;BME280;54349;52.528;19.760;2024-02-26T05:22:14;99530.38;;;23.56;33.90
67501;BME280;54349;52.528;19.760;2024-02-26T05:24:43;99530.55;;;23.52;34.03
67501;BME280;54349;52.528;19.760;2024-02-26T05:27:11;99533.20;;;23.49;34.03
67501;BME280;54349;52.528;19.760;2024-02-26T05:29:42;99532.20;;;23.46;34.08
67501;BME280;54349;52.528;19.760;2024-02-26T05:32:10;99532.00;;;23.44;34.20
67501;BME280;54349;52.528;19.760;2024-02-26T05:34:38;99529.98;;;23.43;34.45
67501;BME280;54349;52.528;19.760;2024-02-26T05:37:09;99531.26;;;23.42;34.36
67501;BME280;54349;52.528;19.760;2024-02-26T05:39:37;99530.52;;;23.41;34.35
67501;BME280;54349;52.528;19.760;2024-02-26T05:42:05;99531.95;;;23.38;34.16
67501;BME280;54349;52.528;19.760;2024-02-26T05:44:34;99541.75;;;23.31;33.93
67501;BME280;54349;52.528;19.760;2024-02-26T05:47:02;99545.17;;;23.25;33.89
67501;BME280;54349;52.528;19.760;2024-02-26T05:49:35;99553.02;;;23.20;33.96
67501;BME280;54349;52.528;19.760;2024-02-26T05:52:03;99560.05;;;23.17;33.92
67501;BME280;54349;52.528;19.760;2024-02-26T05:54:33;99562.43;;;23.14;33.93
67501;BME280;54349;52.528;19.760;2024-02-26T05:57:02;99565.23;;;23.13;34.04
67501;BME280;54349;52.528;19.760;2024-02-26T05:59:32;99568.33;;;23.14;34.05
67501;BME280;54349;52.528;19.760;2024-02-26T06:02:00;99566.46;;;23.13;34.06
67501;BME280;54349;52.528;19.760;2024-02-26T06:04:30;99567.18;;;23.13;33.99
67501;BME280;54349;52.528;19.760;2024-02-26T06:06:58;99570.54;;;23.12;33.95
67501;BME280;54349;52.528;19.760;2024-02-26T06:09:28;99568.98;;;23.11;34.14
67501;BME280;54349;52.528;19.760;2024-02-26T06:11:56;99570.79;;;23.11;34.22
67501;BME280;54349;52.528;19.760;2024-02-26T06:14:27;99574.20;;;23.11;34.50
67501;BME280;54349;52.528;19.760;2024-02-26T06:16:55;99579.31;;;23.10;34.57
67501;BME280;54349;52.528;19.760;2024-02-26T06:19:23;99578.97;;;23.11;35.07
67501;BME280;54349;52.528;19.760;2024-02-26T06:21:52;99583.83;;;23.12;35.46
67501;BME280;54349;52.528;19.760;2024-02-26T06:24:21;99588.98;;;23.14;36.03
67501;BME280;54349;52.528;19.760;2024-02-26T06:26:51;99591.10;;;23.15;36.41
67501;BME280;54349;52.528;19.760;2024-02-26T06:29:19;99591.00;;;23.16;36.87
67501;BME280;54349;52.528;19.760;2024-02-26T06:31:47;99595.27;;;23.18;37.12
67501;BME280;54349;52.528;19.760;2024-02-26T06:34:17;99590.60;;;23.19;37.32
67501;BME280;54349;52.528;19.760;2024-02-26T06:36:46;99590.34;;;23.20;37.40
67501;BME280;54349;52.528;19.760;2024-02-26T06:39:16;99588.94;;;23.21;37.30
67501;BME280;54349;52.528;19.760;2024-02-26T06:41:45;99590.69;;;23.21;37.20
67501;BME280;54349;52.528;19.760;2024-02-26T06:44:16;99598.45;;;23.21;36.96
67501;BME280;54349;52.528;19.760;2024-02-26T06:46:44;99599.36;;;23.20;36.82
67501;BME280;54349;52.528;19.760;2024-02-26T06:49:12;99599.04;;;23.20;36.82
67501;BME280;54349;52.528;19.760;2024-02-26T06:51:41;99605.80;;;23.19;36.64
67501;BME280;54349;52.528;19.760;2024-02-26T06:54:09;99608.34;;;23.20;36.45
67501;BME280;54349;52.528;19.760;2024-02-26T06:56:37;99605.77;;;23.19;36.44
67501;BME280;54349;52.528;19.760;2024-02-26T06:59:06;99606.73;;;23.18;36.49
67501;BME280;54349;52.528;19.760;2024-02-26T07:01:34;99606.73;;;23.18;36.29
67501;BME280;54349;52.528;19.760;2024-02-26T07:04:02;99608.98;;;23.17;36.27
67501;BME280;54349;52.528;19.760;2024-02-26T07:06:32;99611.67;;;23.15;36.13
67501;BME280;54349;52.528;19.760;2024-02-26T07:09:00;99617.83;;;23.15;36.09
67501;BME280;54349;52.528;19.760;2024-02-26T07:11:31;99621.11;;;23.14;36.15
67501;BME280;54349;52.528;19.760;2024-02-26T07:13:59;99618.90;;;23.14;36.43
67501;BME280;54349;52.528;19.760;2024-02-26T07:16:29;99619.03;;;23.14;36.85
67501;BME280;54349;52.528;19.760;2024-02-26T07:18:58;99617.69;;;23.14;37.45
67501;BME280;54349;52.528;19.760;2024-02-26T07:21:27;99615.97;;;23.14;37.61
67501;BME280;54349;52.528;19.760;2024-02-26T07:23:56;99616.98;;;23.14;37.59
67501;BME280;54349;52.528;19.760;2024-02-26T07:26:27;99618.92;;;23.13;37.52
67501;BME280;54349;52.528;19.760;2024-02-26T07:28:57;99623.80;;;23.13;37.72
67501;BME280;54349;52.528;19.760;2024-02-26T07:31:32;99623.41;;;23.13;37.86
67501;BME280;54349;52.528;19.760;2024-02-26T07:34:02;99628.27;;;23.14;37.94
67501;BME280;54349;52.528;19.760;2024-02-26T07:36:32;99620.98;;;23.15;38.22
67501;BME280;54349;52.528;19.760;2024-02-26T07:39:01;99624.81;;;23.17;38.30
67501;BME280;54349;52.528;19.760;2024-02-26T07:41:31;99618.95;;;23.19;38.37
67501;BME280;54349;52.528;19.760;2024-02-26T07:44:00;99617.37;;;23.20;38.02
67501;BME280;54349;52.528;19.760;2024-02-26T07:46:29;99616.61;;;23.19;37.88
67501;BME280;54349;52.528;19.760;2024-02-26T07:48:58;99620.72;;;23.19;37.74
67501;BME280;54349;52.528;19.760;2024-02-26T07:51:28;99617.09;;;23.19;38.20
67501;BME280;54349;52.528;19.760;2024-02-26T07:53:56;99620.36;;;23.22;38.32
67501;BME280;54349;52.528;19.760;2024-02-26T07:56:26;99623.15;;;23.23;38.31
67501;BME280;54349;52.528;19.760;2024-02-26T07:58:54;99624.67;;;23.25;38.41
67501;BME280;54349;52.528;19.760;2024-02-26T08:01:25;99626.91;;;23.27;38.42
67501;BME280;54349;52.528;19.760;2024-02-26T08:03:54;99632.98;;;23.30;38.31
67501;BME280;54349;52.528;19.760;2024-02-26T08:06:28;99635.22;;;23.31;37.86
67501;BME280;54349;52.528;19.760;2024-02-26T08:09:04;99637.67;;;23.32;38.15
67501;BME280;54349;52.528;19.760;2024-02-26T08:11:34;99638.58;;;23.34;38.18
67501;BME280;54349;52.528;19.760;2024-02-26T08:14:04;99642.80;;;23.37;38.42
67501;BME280;54349;52.528;19.760;2024-02-26T08:16:32;99642.89;;;23.40;38.51
67501;BME280;54349;52.528;19.760;2024-02-26T08:19:07;99643.33;;;23.44;38.38
67501;BME280;54349;52.528;19.760;2024-02-26T08:21:36;99645.98;;;23.48;38.42
67501;BME280;54349;52.528;19.760;2024-02-26T08:24:06;99648.29;;;23.53;38.41
67501;BME280;54349;52.528;19.760;2024-02-26T08:26:39;99652.83;;;23.57;38.11
67501;BME280;54349;52.528;19.760;2024-02-26T08:29:09;99652.45;;;23.61;38.03
67501;BME280;54349;52.528;19.760;2024-02-26T08:31:37;99652.13;;;23.65;38.20
67501;BME280;54349;52.528;19.760;2024-02-26T08:34:09;99654.48;;;23.70;38.04
67501;BME280;54349;52.528;19.760;2024-02-26T08:36:47;99651.54;;;23.72;38.16
67501;BME280;54349;52.528;19.760;2024-02-26T08:39:17;99650.17;;;23.75;38.24
67501;BME280;54349;52.528;19.760;2024-02-26T08:41:48;99656.05;;;23.79;38.31
67501;BME280;54349;52.528;19.760;2024-02-26T08:44:17;99656.90;;;23.82;38.28
67501;BME280;54349;52.528;19.760;2024-02-26T08:46:45;99660.13;;;23.85;38.16
67501;BME280;54349;52.528;19.760;2024-02-26T08:49:15;99661.38;;;23.88;37.89
67501;BME280;54349;52.528;19.760;2024-02-26T08:51:45;99658.88;;;23.90;37.96
67501;BME280;54349;52.528;19.760;2024-02-26T08:54:13;99657.11;;;23.92;37.89
67501;BME280;54349;52.528;19.760;2024-02-26T08:56:44;99654.91;;;23.97;38.03
67501;BME280;54349;52.528;19.760;2024-02-26T08:59:14;99655.38;;;24.00;37.93
67501;BME280;54349;52.528;19.760;2024-02-26T09:01:45;99655.31;;;24.04;37.77
67501;BME280;54349;52.528;19.760;2024-02-26T09:04:14;99649.42;;;24.06;37.81
67501;BME280;54349;52.528;19.760;2024-02-26T09:06:43;99650.70;;;24.08;37.83
67501;BME280;54349;52.528;19.760;2024-02-26T09:09:12;99655.08;;;24.10;37.71
67501;BME280;54349;52.528;19.760;2024-02-26T09:11:43;99655.62;;;24.10;37.20
67501;BME280;54349;52.528;19.760;2024-02-26T09:14:12;99659.00;;;24.08;37.21
67501;BME280;54349;52.528;19.760;2024-02-26T09:16:42;99661.96;;;24.07;37.41
67501;BME280;54349;52.528;19.760;2024-02-26T09:19:10;99661.48;;;24.07;37.71
67501;BME280;54349;52.528;19.760;2024-02-26T09:21:43;99661.00;;;24.06;37.78
67501;BME280;54349;52.528;19.760;2024-02-26T09:24:12;99660.66;;;24.06;37.80
67501;BME280;54349;52.528;19.760;2024-02-26T09:26:42;99660.80;;;24.05;37.74
67501;BME280;54349;52.528;19.760;2024-02-26T09:29:10;99658.95;;;24.05;37.39
67501;BME280;54349;52.528;19.760;2024-02-26T09:31:41;99663.83;;;24.04;37.73
67501;BME280;54349;52.528;19.760;2024-02-26T09:34:13;99660.37;;;24.03;37.46
67501;BME280;54349;52.528;19.760;2024-02-26T09:36:44;99663.23;;;24.02;37.50
67501;BME280;54349;52.528;19.760;2024-02-26T09:39:12;99658.02;;;24.02;37.60
67501;BME280;54349;52.528;19.760;2024-02-26T09:41:52;99653.52;;;24.02;37.69
67501;BME280;54349;52.528;19.760;2024-02-26T09:44:22;99654.30;;;24.04;37.74
67501;BME280;54349;52.528;19.760;2024-02-26T09:46:52;99656.59;;;24.05;37.86
67501;BME280;54349;52.528;19.760;2024-02-26T09:49:21;99655.42;;;24.07;37.50
67501;BME280;54349;52.528;19.760;2024-02-26T09:51:53;99661.58;;;24.10;37.67
67501;BME280;54349;52.528;19.760;2024-02-26T09:54:23;99661.66;;;24.10;37.75
67501;BME280;54349;52.528;19.760;2024-02-26T09:56:59;99663.69;;;24.13;37.40
67501;BME280;54349;52.528;19.760;2024-02-26T09:59:39;99664.63;;;24.14;37.00
67501;BME280;54349;52.528;19.760;2024-02-26T10:02:13;99666.52;;;24.16;37.40
67501;BME280;54349;52.528;19.760;2024-02-26T10:04:42;99665.01;;;24.19;37.43
67501;BME280;54349;52.528;19.760;2024-02-26T10:07:18;99663.48;;;24.21;37.33
67501;BME280;54349;52.528;19.760;2024-02-26T10:09:46;99663.44;;;24.23;37.20
67501;BME280;54349;52.528;19.760;2024-02-26T10:12:17;99660.95;;;24.26;37.19
67501;BME280;54349;52.528;19.760;2024-02-26T10:14:46;99662.02;;;24.28;37.49
67501;BME280;54349;52.528;19.760;2024-02-26T10:17:15;99665.36;;;24.30;37.30
67501;BME280;54349;52.528;19.760;2024-02-26T10:19:44;99664.05;;;24.33;37.01
67501;BME280;54349;52.528;19.760;2024-02-26T10:22:14;99665.08;;;24.34;37.17
67501;BME280;54349;52.528;19.760;2024-02-26T10:24:42;99664.39;;;24.36;37.07
67501;BME280;54349;52.528;19.760;2024-02-26T10:27:12;99663.93;;;24.39;37.41
67501;BME280;54349;52.528;19.760;2024-02-26T10:29:41;99665.80;;;24.41;37.37
67501;BME280;54349;52.528;19.760;2024-02-26T10:32:12;99667.75;;;24.44;37.40
67501;BME280;54349;52.528;19.760;2024-02-26T10:34:41;99663.13;;;24.46;37.28
67501;BME280;54349;52.528;19.760;2024-02-26T10:37:11;99660.44;;;24.48;37.24
67501;BME280;54349;52.528;19.760;2024-02-26T10:39:46;99657.70;;;24.51;37.09
67501;BME280;54349;52.528;19.760;2024-02-26T10:42:16;99652.15;;;24.53;37.16
67501;BME280;54349;52.528;19.760;2024-02-26T10:44:47;99655.24;;;24.54;36.78
67501;BME280;54349;52.528;19.760;2024-02-26T10:47:18;99658.67;;;24.57;37.00
67501;BME280;54349;52.528;19.760;2024-02-26T10:49:47;99659.56;;;24.58;37.15
67501;BME280;54349;52.528;19.760;2024-02-26T10:52:19;99665.92;;;24.61;37.20
67501;BME280;54349;52.528;19.760;2024-02-26T10:54:47;99658.48;;;24.63;37.25
67501;BME280;54349;52.528;19.760;2024-02-26T10:57:20;99656.43;;;24.64;37.16
67501;BME280;54349;52.528;19.760;2024-02-26T10:59:51;99656.27;;;24.64;37.29
67501;BME280;54349;52.528;19.760;2024-02-26T11:02:24;99656.87;;;24.66;37.09
67501;BME280;54349;52.528;19.760;2024-02-26T11:04:53;99652.48;;;24.67;37.12
67501;BME280;54349;52.528;19.760;2024-02-26T11:07:23;99652.86;;;24.67;36.83
67501;BME280;54349;52.528;19.760;2024-02-26T11:09:53;99647.61;;;24.66;37.02
67501;BME280;54349;52.528;19.760;2024-02-26T11:12:24;99651.98;;;24.67;36.95
67501;BME280;54349;52.528;19.760;2024-02-26T11:14:53;99651.42;;;24.67;37.15
67501;BME280;54349;52.528;19.760;2024-02-26T11:17:26;99649.39;;;24.64;37.31
67501;BME280;54349;52.528;19.760;2024-02-26T11:19:56;99650.65;;;24.65;37.12
67501;BME280;54349;52.528;19.760;2024-02-26T11:22:27;99653.50;;;24.64;37.02
67501;BME280;54349;52.528;19.760;2024-02-26T11:24:56;99647.06;;;24.64;37.23
67501;BME280;54349;52.528;19.760;2024-02-26T11:27:30;99645.40;;;24.64;37.18
67501;BME280;54349;52.528;19.760;2024-02-26T11:30:04;99647.95;;;24.64;36.97
67501;BME280;54349;52.528;19.760;2024-02-26T11:32:39;99650.38;;;24.64;37.09
67501;BME280;54349;52.528;19.760;2024-02-26T11:35:08;99648.66;;;24.64;37.02
67501;BME280;54349;52.528;19.760;2024-02-26T11:37:40;99647.45;;;24.64;37.09
67501;BME280;54349;52.528;19.760;2024-02-26T11:40:14;99647.72;;;24.64;37.14
67501;BME280;54349;52.528;19.760;2024-02-26T11:42:44;99642.10;;;24.65;37.14
67501;BME280;54349;52.528;19.760;2024-02-26T11:48:14;99647.15;;;24.67;37.17
67501;BME280;54349;52.528;19.760;2024-02-26T11:50:49;99642.65;;;24.67;36.99
67501;BME280;54349;52.528;19.760;2024-02-26T11:53:55;99642.68;;;24.68;36.97
67501;BME280;54349;52.528;19.760;2024-02-26T11:56:22;99639.35;;;24.68;36.73
67501;BME280;54349;52.528;19.760;2024-02-26T11:59:04;99636.22;;;24.68;36.90
67501;BME280;54349;52.528;19.760;2024-02-26T12:06:50;99633.31;;;24.71;36.99
67501;BME280;54349;52.528;19.760;2024-02-26T12:09:41;99628.05;;;24.72;36.97
67501;BME280;54349;52.528;19.760;2024-02-26T12:12:18;99629.08;;;24.72;36.94
67501;BME280;54349;52.528;19.760;2024-02-26T12:14:56;99633.34;;;24.73;36.84
67501;BME280;54349;52.528;19.760;2024-02-26T12:17:26;99627.43;;;24.74;36.78
67501;BME280;54349;52.528;19.760;2024-02-26T12:20:08;99623.73;;;24.75;36.83
67501;BME280;54349;52.528;19.760;2024-02-26T12:22:45;99627.88;;;24.75;36.51
67501;BME280;54349;52.528;19.760;2024-02-26T12:25:22;99629.96;;;24.76;36.69
67501;BME280;54349;52.528;19.760;2024-02-26T12:27:55;99634.21;;;24.77;36.79
67501;BME280;54349;52.528;19.760;2024-02-26T12:30:24;99631.70;;;24.77;36.70
67501;BME280;54349;52.528;19.760;2024-02-26T12:33:03;99629.59;;;24.78;36.62
67501;BME280;54349;52.528;19.760;2024-02-26T12:35:35;99625.27;;;24.78;36.69
67501;BME280;54349;52.528;19.760;2024-02-26T12:38:05;99628.79;;;24.80;36.12
67501;BME280;54349;52.528;19.760;2024-02-26T12:40:35;99630.13;;;24.79;36.40
67501;BME280;54349;52.528;19.760;2024-02-26T12:43:05;99631.91;;;24.80;36.35
67501;BME280;54349;52.528;19.760;2024-02-26T12:45:34;99634.63;;;24.81;36.43
67501;BME280;54349;52.528;19.760;2024-02-26T12:48:04;99635.83;;;24.81;36.46
67501;BME280;54349;52.528;19.760;2024-02-26T12:50:33;99635.25;;;24.82;36.44
67501;BME280;54349;52.528;19.760;2024-02-26T12:53:04;99636.23;;;24.83;36.56
67501;BME280;54349;52.528;19.760;2024-02-26T12:55:34;99636.16;;;24.83;36.36
67501;BME280;54349;52.528;19.760;2024-02-26T12:58:05;99635.37;;;24.83;36.39
67501;BME280;54349;52.528;19.760;2024-02-26T13:00:34;99634.13;;;24.84;36.20
67501;BME280;54349;52.528;19.760;2024-02-26T13:03:04;99637.16;;;24.84;36.18
67501;BME280;54349;52.528;19.760;2024-02-26T13:05:33;99642.15;;;24.84;36.30
67501;BME280;54349;52.528;19.760;2024-02-26T13:08:02;99642.02;;;24.85;36.16
67501;BME280;54349;52.528;19.760;2024-02-26T13:10:36;99643.62;;;24.85;36.32
67501;BME280;54349;52.528;19.760;2024-02-26T13:13:06;99647.11;;;24.85;36.20
67501;BME280;54349;52.528;19.760;2024-02-26T13:15:36;99647.48;;;24.86;36.16
67501;BME280;54349;52.528;19.760;2024-02-26T13:18:14;99645.73;;;24.87;36.26
67501;BME280;54349;52.528;19.760;2024-02-26T13:20:44;99643.23;;;24.87;36.41
67501;BME280;54349;52.528;19.760;2024-02-26T13:23:14;99641.11;;;24.87;36.28
67501;BME280;54349;52.528;19.760;2024-02-26T13:25:45;99640.55;;;24.87;36.35
67501;BME280;54349;52.528;19.760;2024-02-26T13:28:17;99641.92;;;24.88;36.23
67501;BME280;54349;52.528;19.760;2024-02-26T13:30:54;99638.38;;;24.88;35.97
67501;BME280;54349;52.528;19.760;2024-02-26T13:33:28;99633.77;;;24.88;36.28
67501;BME280;54349;52.528;19.760;2024-02-26T13:35:58;99634.98;;;24.89;36.36
67501;BME280;54349;52.528;19.760;2024-02-26T13:38:28;99633.87;;;24.89;36.23
67501;BME280;54349;52.528;19.760;2024-02-26T13:40:56;99634.68;;;24.89;36.01
67501;BME280;54349;52.528;19.760;2024-02-26T13:43:27;99639.36;;;24.89;35.89
67501;BME280;54349;52.528;19.760;2024-02-26T13:45:55;99634.25;;;24.89;35.97
67501;BME280;54349;52.528;19.760;2024-02-26T13:48:25;99633.70;;;24.89;35.75
67501;BME280;54349;52.528;19.760;2024-02-26T13:50:54;99634.81;;;24.89;35.68
67501;BME280;54349;52.528;19.760;2024-02-26T13:53:24;99630.20;;;24.89;35.74
67501;BME280;54349;52.528;19.760;2024-02-26T13:55:52;99631.00;;;24.88;35.73
67501;BME280;54349;52.528;19.760;2024-02-26T13:58:23;99631.16;;;24.88;35.89
67501;BME280;54349;52.528;19.760;2024-02-26T14:00:54;99632.16;;;24.88;35.87
67501;BME280;54349;52.528;19.760;2024-02-26T14:03:23;99630.50;;;24.88;35.84
67501;BME280;54349;52.528;19.760;2024-02-26T14:05:52;99637.55;;;24.88;35.96
67501;BME280;54349;52.528;19.760;2024-02-26T14:08:21;99637.62;;;24.87;36.10